Time;durP1;ratioP1;P1;durP2;ratioP2;P2;SDS_P1;SDS_P2;PMS_P1;PMS_P2;Temp;Humidity;BMP_temperature;BMP_pressure;BME280_temperature;BME280_humidity;BME280_pressure;Samples;Min_cycle;Max_cycle;Signal;HPM_P1;HPM_P2
2022/07/05 00:00:09;;;;;;;444.87;400.60;;;;;;;23.66;50.98;99680.75;342562;28;808;-76
2022/07/05 00:00:19;;;;;;;449.70;405.30;;;;;;;23.68;50.76;99681.44;342299;28;1280;-75
2022/07/05 00:00:29;;;;;;;445.50;401.10;;;;;;;23.70;50.59;99674.97;343727;28;1196;-75
2022/07/05 00:00:40;;;;;;;439.70;395.47;;;;;;;23.72;50.98;99680.19;341192;29;1192;-75
2022/07/05 00:00:51;;;;;;;428.40;384.45;;;;;;;23.75;50.80;99686.06;343805;28;1462;-75
2022/07/05 00:01:01;;;;;;;428.53;384.67;;;;;;;23.78;51.04;99680.44;343722;28;1439;-75
2022/07/05 00:01:12;;;;;;;430.98;386.92;;;;;;;23.80;50.88;99685.66;345044;28;1739;-75
2022/07/05 00:01:22;;;;;;;435.93;391.83;;;;;;;23.81;50.49;99679.31;343792;28;1237;-75
2022/07/05 00:01:32;;;;;;;432.15;388.17;;;;;;;23.82;50.84;99678.31;343953;28;868;-75
2022/07/05 00:01:43;;;;;;;429.43;385.50;;;;;;;23.85;50.88;99683.34;342567;28;1371;-75
2022/07/05 00:01:54;;;;;;;422.10;378.45;;;;;;;23.85;50.82;99684.19;345232;28;1802;-75
2022/07/05 00:02:04;;;;;;;416.35;373.20;;;;;;;23.87;50.91;99690.25;344302;28;1516;-76
2022/07/05 00:02:15;;;;;;;416.53;373.53;;;;;;;23.88;50.34;99685.72;344164;28;1199;-76
2022/07/05 00:02:25;;;;;;;421.42;378.40;;;;;;;23.88;50.58;99683.91;343840;28;1344;-77
2022/07/05 00:02:36;;;;;;;425.13;381.90;;;;;;;23.92;50.67;99686.28;343818;28;1200;-75
2022/07/05 00:02:46;;;;;;;425.77;382.45;;;;;;;23.93;50.41;99680.78;343922;28;1036;-75
2022/07/05 00:02:57;;;;;;;425.53;381.97;;;;;;;23.95;50.60;99688.66;342498;28;1275;-75
2022/07/05 00:03:07;;;;;;;426.88;383.10;;;;;;;23.95;50.08;99684.16;345064;28;1203;-75
2022/07/05 00:03:17;;;;;;;428.33;384.50;;;;;;;23.96;50.23;99685.84;343760;28;1108;-75
2022/07/05 00:03:28;;;;;;;424.90;381.33;;;;;;;23.99;50.37;99684.72;341339;28;3861;-76
2022/07/05 00:03:38;;;;;;;421.07;377.70;;;;;;;23.98;50.38;99681.19;339896;29;4437;-76
2022/07/05 00:03:49;;;;;;;415.73;372.52;;;;;;;24.01;50.16;99688.94;343897;28;1253;-76
2022/07/05 00:03:59;;;;;;;418.37;374.93;;;;;;;24.01;50.28;99683.59;345431;28;1875;-77
2022/07/05 00:04:10;;;;;;;417.83;374.37;;;;;;;24.03;50.22;99686.13;345319;28;3430;-77
2022/07/05 00:04:20;;;;;;;410.20;366.98;;;;;;;24.00;50.18;99681.06;343705;28;1388;-77
2022/07/05 00:04:30;;;;;;;405.87;362.73;;;;;;;23.96;50.10;99685.84;343961;28;1331;-77
2022/07/05 00:04:41;;;;;;;402.60;359.70;;;;;;;23.87;50.16;99690.25;344008;28;1346;-77
2022/07/05 00:04:52;;;;;;;403.43;360.60;;;;;;;23.75;50.49;99687.91;345809;28;796;-77
2022/07/05 00:05:02;;;;;;;405.73;362.80;;;;;;;23.64;50.61;99688.06;343893;28;1091;-77
2022/07/05 00:05:13;;;;;;;412.15;368.88;;;;;;;23.60;50.64;99689.34;345005;28;998;-77
2022/07/05 00:05:23;;;;;;;416.17;372.77;;;;;;;23.53;51.21;99689.91;342488;28;1298;-77
2022/07/05 00:05:34;;;;;;;417.98;374.65;;;;;;;23.51;51.20;99691.00;343877;28;1655;-77
2022/07/05 00:05:45;;;;;;;418.50;375.23;;;;;;;23.50;51.43;99684.81;345208;28;1405;-77
2022/07/05 00:05:56;;;;;;;419.87;376.57;;;;;;;23.50;51.40;99690.16;346469;28;1345;-77
2022/07/05 00:06:06;;;;;;;420.88;377.48;;;;;;;23.48;51.50;99689.47;345687;28;2134;-76
2022/07/05 00:06:17;;;;;;;419.95;376.50;;;;;;;23.45;51.06;99686.22;343882;28;873;-76
2022/07/05 00:06:27;;;;;;;417.67;374.33;;;;;;;23.43;51.46;99683.69;342612;28;996;-76
2022/07/05 00:07:17;;;;;;;413.63;370.35;;;;;;;23.42;51.57;99698.03;341660;28;806;-76
2022/07/05 00:07:20;;;;;;;421.15;377.75;;;;;;;23.47;51.38;99689.59;342355;28;1060;-76
2022/07/05 00:07:31;;;;;;;414.55;371.55;;;;;;;23.49;51.49;99692.97;343250;28;1387;-76
2022/07/05 00:07:41;;;;;;;412.17;369.13;;;;;;;23.48;51.25;99686.78;345253;28;1334;-76
2022/07/05 00:07:51;;;;;;;419.60;375.92;;;;;;;23.50;51.38;99689.31;345172;28;1382;-76
2022/07/05 00:08:02;;;;;;;424.57;380.50;;;;;;;23.52;51.09;99688.19;343923;28;825;-76
2022/07/05 00:08:13;;;;;;;432.17;387.73;;;;;;;23.53;50.92;99689.91;342771;28;1967;-76
2022/07/05 00:08:23;;;;;;;433.88;389.58;;;;;;;23.55;51.36;99685.28;343735;28;1358;-76
2022/07/05 00:08:34;;;;;;;432.33;388.17;;;;;;;23.59;51.12;99687.66;345219;28;1027;-76
2022/07/05 00:08:44;;;;;;;426.48;382.27;;;;;;;23.62;51.19;99684.69;345145;28;1346;-76
2022/07/05 00:08:55;;;;;;;424.33;380.37;;;;;;;23.62;50.96;99682.03;343880;28;1323;-76
2022/07/05 00:09:05;;;;;;;430.42;386.30;;;;;;;23.64;50.81;99688.06;342546;28;854;-76
2022/07/05 00:09:15;;;;;;;430.87;387.03;;;;;;;23.66;50.72;99684.28;345521;28;1351;-76
2022/07/05 00:09:26;;;;;;;429.03;385.20;;;;;;;23.68;50.73;99686.78;343854;28;1271;-76
2022/07/05 00:09:36;;;;;;;424.40;380.75;;;;;;;23.66;51.09;99684.28;343881;28;1448;-76
2022/07/05 00:09:50;;;;;;;424.13;380.63;;;;;;;23.65;50.96;99684.41;343803;28;1232;-76
2022/07/05 00:10:01;;;;;;;421.08;377.95;;;;;;;23.63;51.01;99678.38;345802;28;1267;-76
2022/07/05 00:10:11;;;;;;;424.17;380.77;;;;;;;23.61;51.07;99680.34;346814;28;1191;-76
2022/07/05 00:10:21;;;;;;;418.53;374.97;;;;;;;23.59;51.22;99682.31;345178;28;1168;-76
2022/07/05 00:10:33;;;;;;;420.25;376.60;;;;;;;23.58;50.93;99685.97;341146;28;889;-76
2022/07/05 00:10:43;;;;;;;422.38;378.80;;;;;;;23.55;51.13;99682.59;345150;28;1498;-76
2022/07/05 00:10:54;;;;;;;427.90;384.27;;;;;;;23.57;51.37;99685.13;344982;28;1240;-76
2022/07/05 00:11:04;;;;;;;430.27;386.13;;;;;;;23.55;51.39;99687.94;341364;28;1947;-76
2022/07/05 00:11:15;;;;;;;430.17;386.07;;;;;;;23.53;51.08;99684.56;340434;29;882;-76
2022/07/05 00:11:25;;;;;;;435.25;390.90;;;;;;;23.52;51.10;99682.84;342901;28;1603;-76
2022/07/05 00:11:35;;;;;;;436.30;392.07;;;;;;;23.55;51.18;99682.59;342540;28;910;-76
2022/07/05 00:11:46;;;;;;;432.73;388.50;;;;;;;23.57;51.43;99681.59;343849;28;1603;-76
2022/07/05 00:11:56;;;;;;;433.43;388.97;;;;;;;23.57;51.19;99687.81;343970;28;1263;-76
2022/07/05 00:12:07;;;;;;;430.83;386.58;;;;;;;23.57;51.07;99684.28;343481;28;1315;-76
2022/07/05 00:12:18;;;;;;;431.17;387.13;;;;;;;23.55;51.29;99687.94;342519;28;869;-76
2022/07/05 00:12:31;;;;;;;425.97;382.27;;;;;;;23.50;51.52;99692.00;342722;28;869;-77
2022/07/05 00:12:42;;;;;;;432.08;388.17;;;;;;;23.44;51.72;99682.72;341712;28;4014;-76
2022/07/05 00:12:52;;;;;;;434.97;391.10;;;;;;;23.43;51.46;99678.38;344957;28;1737;-75
2022/07/05 00:13:03;;;;;;;441.90;397.80;;;;;;;23.44;51.45;99695.22;346406;28;2564;-76
2022/07/05 00:13:13;;;;;;;440.57;396.50;;;;;;;23.44;51.45;99685.41;345068;28;2022;-76
2022/07/05 00:13:24;;;;;;;441.80;397.67;;;;;;;23.46;51.69;99683.41;342401;28;3151;-76
2022/07/05 00:13:34;;;;;;;434.00;390.10;;;;;;;23.45;51.56;99687.06;342580;28;1046;-76
2022/07/05 00:13:45;;;;;;;434.33;390.13;;;;;;;23.46;51.64;99686.09;343841;28;1331;-76
2022/07/05 00:13:55;;;;;;;434.00;389.77;;;;;;;23.46;51.29;99687.91;342492;28;1212;-77
2022/07/05 00:14:05;;;;;;;429.70;385.75;;;;;;;23.41;51.59;99683.00;342470;28;868;-76
2022/07/05 00:14:16;;;;;;;427.63;383.87;;;;;;;23.37;51.78;99686.13;345115;28;1848;-76
2022/07/05 00:14:26;;;;;;;430.63;386.95;;;;;;;23.34;51.63;99679.25;346517;28;1248;-77
2022/07/05 00:14:37;;;;;;;434.43;390.67;;;;;;;23.33;51.80;99690.91;342516;28;802;-76
2022/07/05 00:14:49;;;;;;;439.90;396.03;;;;;;;23.31;52.04;99682.19;343815;28;1295;-76
2022/07/05 00:14:59;;;;;;;438.92;395.02;;;;;;;23.35;51.73;99686.28;341191;29;1371;-76
2022/07/05 00:15:10;;;;;;;438.27;394.02;;;;;;;23.38;51.80;99680.66;342445;28;1314;-76
2022/07/05 00:15:21;;;;;;;438.23;393.83;;;;;;;23.40;51.86;99684.00;344289;28;1204;-75
2022/07/05 00:15:32;;;;;;;431.23;386.92;;;;;;;23.42;51.90;99686.53;345150;28;1449;-75
2022/07/05 00:15:42;;;;;;;424.33;380.45;;;;;;;23.44;51.60;99682.72;342472;28;1326;-75
2022/07/05 00:15:53;;;;;;;414.47;370.83;;;;;;;23.43;51.87;99689.06;343731;28;1140;-75
2022/07/05 00:16:03;;;;;;;419.63;375.92;;;;;;;23.40;51.66;99689.34;344268;28;1808;-76
2022/07/05 00:16:14;;;;;;;431.00;386.80;;;;;;;23.38;51.78;99685.16;346515;28;883;-76
2022/07/05 00:16:24;;;;;;;441.20;396.73;;;;;;;23.40;51.67;99689.34;341511;28;1191;-76
2022/07/05 00:16:35;;;;;;;448.33;403.63;;;;;;;23.42;51.85;99686.53;342510;28;968;-76
2022/07/05 00:16:45;;;;;;;445.52;401.17;;;;;;;23.44;51.86;99690.72;342491;28;1294;-76
2022/07/05 00:16:55;;;;;;;439.33;395.33;;;;;;;23.46;51.76;99694.09;342566;28;1087;-76
2022/07/05 00:17:06;;;;;;;431.73;388.17;;;;;;;23.47;51.60;99686.94;343920;28;860;-76
2022/07/05 00:17:16;;;;;;;430.10;386.63;;;;;;;23.49;51.49;99691.16;342406;28;1313;-76
2022/07/05 00:17:27;;;;;;;431.73;388.03;;;;;;;23.51;51.44;99694.53;341191;29;1260;-76
2022/07/05 00:17:37;;;;;;;434.92;391.15;;;;;;;23.52;51.63;99688.19;342433;28;1213;-76
2022/07/05 00:17:48;;;;;;;436.03;392.23;;;;;;;23.51;51.37;99691.84;342250;28;1122;-76
2022/07/05 00:17:58;;;;;;;435.63;391.83;;;;;;;23.50;51.68;99689.31;343006;28;822;-76
2022/07/05 00:18:09;;;;;;;434.13;390.13;;;;;;;23.44;51.66;99696.06;345351;28;976;-76
2022/07/05 00:18:19;;;;;;;428.08;384.35;;;;;;;23.43;51.92;99691.72;346550;28;1214;-76
2022/07/05 00:18:29;;;;;;;425.87;382.17;;;;;;;23.42;51.65;99695.38;343773;28;1235;-76
2022/07/05 00:18:40;;;;;;;429.08;385.33;;;;;;;23.39;51.88;99693.03;345053;28;1973;-76
2022/07/05 00:18:50;;;;;;;439.33;395.07;;;;;;;23.39;51.81;99687.69;342473;28;1196;-76
2022/07/05 00:19:01;;;;;;;441.70;397.15;;;;;;;23.36;51.77;99685.28;343864;28;1366;-76
2022/07/05 00:19:11;;;;;;;447.30;402.60;;;;;;;23.35;52.07;99685.44;345124;28;971;-76
2022/07/05 00:19:21;;;;;;;448.15;403.55;;;;;;;23.35;52.04;99686.28;343750;28;1485;-76
2022/07/05 00:19:32;;;;;;;451.40;406.73;;;;;;;23.36;51.82;99693.31;341130;28;1210;-76
2022/07/05 00:19:42;;;;;;;448.60;404.00;;;;;;;23.38;51.66;99688.66;342368;28;1348;-76
2022/07/05 00:19:53;;;;;;;448.00;403.37;;;;;;;23.38;51.79;99686.00;342619;28;884;-76
2022/07/05 00:20:04;;;;;;;443.70;399.05;;;;;;;23.40;52.19;99689.34;342582;28;893;-76
2022/07/05 00:20:15;;;;;;;441.60;397.13;;;;;;;23.40;52.04;99689.34;342243;28;2262;-76
2022/07/05 00:20:25;;;;;;;443.80;399.40;;;;;;;23.45;51.70;99695.09;342558;28;1195;-77
2022/07/05 00:20:36;;;;;;;435.70;391.80;;;;;;;23.47;51.59;99685.09;343124;28;1473;-76
2022/07/05 00:20:46;;;;;;;433.37;389.47;;;;;;;23.48;51.70;99686.78;342634;28;1103;-75
2022/07/05 00:20:56;;;;;;;428.17;384.42;;;;;;;23.49;51.42;99687.63;342322;28;1228;-76
2022/07/05 00:21:07;;;;;;;429.80;385.87;;;;;;;23.50;51.86;99692.84;342040;28;1529;-76
2022/07/05 00:21:17;;;;;;;429.52;385.73;;;;;;;23.52;51.48;99688.19;345016;28;1408;-76
2022/07/05 00:21:28;;;;;;;435.03;391.13;;;;;;;23.54;51.66;99688.09;342485;28;1331;-76
2022/07/05 00:21:38;;;;;;;443.37;399.43;;;;;;;23.55;51.62;99682.59;343637;28;865;-76
2022/07/05 00:21:48;;;;;;;441.88;398.08;;;;;;;23.58;51.54;99692.16;343369;28;2956;-76
2022/07/05 00:22:00;;;;;;;439.77;396.03;;;;;;;23.58;51.51;99686.81;342439;28;3003;-76
2022/07/05 00:22:10;;;;;;;437.42;393.75;;;;;;;23.61;51.63;99688.34;343660;28;5124;-76
2022/07/05 00:22:21;;;;;;;437.70;393.93;;;;;;;23.62;51.30;99690.03;342453;28;1293;-76
2022/07/05 00:22:31;;;;;;;431.17;387.63;;;;;;;23.60;51.49;99686.66;341257;29;3277;-76
2022/07/05 00:22:42;;;;;;;431.37;387.87;;;;;;;23.56;51.62;99688.78;342481;28;1321;-76
2022/07/05 00:22:52;;;;;;;431.88;388.50;;;;;;;23.55;51.62;99693.28;344661;28;1284;-76
2022/07/05 00:23:03;;;;;;;435.40;391.77;;;;;;;23.53;51.71;99689.06;343953;28;849;-76
2022/07/05 00:23:13;;;;;;;437.65;393.75;;;;;;;23.50;51.55;99695.50;341463;28;1244;-77
2022/07/05 00:23:23;;;;;;;438.73;394.67;;;;;;;23.48;51.70;99686.78;342524;28;1208;-77
2022/07/05 00:23:34;;;;;;;440.85;396.65;;;;;;;23.45;51.70;99681.72;343736;28;1484;-77
2022/07/05 00:23:46;;;;;;;440.27;396.00;;;;;;;23.47;51.70;99685.09;342539;28;901;-76
2022/07/05 00:23:56;;;;;;;436.52;392.25;;;;;;;23.49;51.74;99684.97;342489;28;1633;-76
2022/07/05 00:24:07;;;;;;;435.77;391.63;;;;;;;23.49;51.50;99687.63;343887;28;1243;-76
2022/07/05 00:24:17;;;;;;;442.80;398.55;;;;;;;23.49;51.94;99682.28;341135;29;1234;-77
2022/07/05 00:24:28;;;;;;;443.33;399.10;;;;;;;23.49;51.41;99682.28;342443;28;1505;-76
2022/07/05 00:24:38;;;;;;;438.80;394.95;;;;;;;23.49;51.84;99688.47;342562;28;747;-76
2022/07/05 00:24:50;;;;;;;433.43;389.67;;;;;;;23.51;51.48;99683.84;343932;28;935;-76
2022/07/05 00:25:00;;;;;;;438.65;394.73;;;;;;;23.53;51.48;99687.25;345179;28;1401;-76
2022/07/05 00:25:11;;;;;;;441.23;397.17;;;;;;;23.53;51.72;99689.91;343843;28;1166;-76
2022/07/05 00:25:21;;;;;;;443.10;399.10;;;;;;;23.50;51.61;99687.50;342797;28;876;-76
2022/07/05 00:25:32;;;;;;;440.58;396.80;;;;;;;23.52;51.57;99688.19;345325;28;912;-76
2022/07/05 00:25:42;;;;;;;437.80;394.20;;;;;;;23.53;51.61;99687.25;342496;28;1200;-76
2022/07/05 00:25:53;;;;;;;433.47;390.03;;;;;;;23.51;51.59;99686.50;342655;28;1353;-76
2022/07/05 00:26:03;;;;;;;435.27;391.80;;;;;;;23.50;51.55;99689.31;342673;28;1150;-76
2022/07/05 00:26:13;;;;;;;440.90;397.30;;;;;;;23.45;51.46;99681.72;344311;28;1260;-76
2022/07/05 00:26:24;;;;;;;440.08;396.50;;;;;;;23.44;51.96;99680.03;342415;28;1342;-76
2022/07/05 00:26:34;;;;;;;435.83;392.07;;;;;;;23.46;51.51;99688.75;343813;28;1196;-76
2022/07/05 00:26:45;;;;;;;430.13;386.42;;;;;;;23.49;51.56;99687.63;343932;28;849;-77
2022/07/05 00:26:55;;;;;;;430.90;387.20;;;;;;;23.49;51.48;99684.97;344519;28;1488;-77
2022/07/05 00:27:05;;;;;;;432.83;389.15;;;;;;;23.52;51.79;99682.84;341194;29;889;-76
2022/07/05 00:27:16;;;;;;;434.27;390.43;;;;;;;23.54;51.61;99686.25;345181;28;1215;-76
2022/07/05 00:27:26;;;;;;;434.63;390.77;;;;;;;23.56;51.65;99688.78;345158;28;1351;-76
2022/07/05 00:27:37;;;;;;;434.47;390.80;;;;;;;23.54;51.47;99680.91;345115;28;1204;-76
2022/07/05 00:27:47;;;;;;;431.40;387.70;;;;;;;23.55;51.48;99687.94;345296;28;810;-77
2022/07/05 00:27:58;;;;;;;429.95;386.45;;;;;;;23.55;51.40;99684.44;341204;29;1216;-77
2022/07/05 00:28:08;;;;;;;429.93;386.40;;;;;;;23.55;51.53;99687.94;342537;28;850;-77
2022/07/05 00:28:18;;;;;;;431.75;387.67;;;;;;;23.57;51.43;99686.97;342395;28;1215;-77
2022/07/05 00:28:29;;;;;;;434.83;390.57;;;;;;;23.56;51.62;99683.44;343332;28;1411;-77
2022/07/05 00:28:39;;;;;;;439.60;395.15;;;;;;;23.57;51.62;99684.28;344104;28;1187;-77
2022/07/05 00:28:50;;;;;;;443.10;398.90;;;;;;;23.55;51.55;99682.59;345261;28;945;-76
2022/07/05 00:29:00;;;;;;;444.10;399.80;;;;;;;23.54;51.66;99686.25;345099;28;1342;-76
2022/07/05 00:29:10;;;;;;;437.77;393.55;;;;;;;23.54;51.59;99680.06;344997;28;1445;-76
2022/07/05 00:29:21;;;;;;;435.30;391.03;;;;;;;23.55;51.87;99692.44;343782;28;1291;-76
2022/07/05 00:29:31;;;;;;;434.35;390.13;;;;;;;23.55;51.63;99682.59;343865;28;1062;-76
2022/07/05 00:29:42;;;;;;;433.13;389.10;;;;;;;23.53;51.52;99679.22;341082;29;1351;-76
2022/07/05 00:29:52;;;;;;;426.60;382.98;;;;;;;23.53;51.74;99683.72;342426;28;1301;-76
2022/07/05 00:30:04;;;;;;;423.57;380.17;;;;;;;23.50;51.70;99684.81;341191;29;802;-76
2022/07/05 00:30:15;;;;;;;425.20;381.70;;;;;;;23.49;51.83;99685.81;341162;28;1236;-76
2022/07/05 00:30:25;;;;;;;431.70;387.95;;;;;;;23.45;51.64;99681.72;341262;29;955;-76
2022/07/05 00:30:36;;;;;;;442.17;398.03;;;;;;;23.44;51.84;99684.53;341183;29;1498;-76
2022/07/05 00:30:46;;;;;;;444.00;400.00;;;;;;;23.40;51.93;99689.34;341227;29;817;-76
2022/07/05 00:30:56;;;;;;;444.30;400.20;;;;;;;23.37;51.85;99684.31;340997;28;1413;-76
2022/07/05 00:31:07;;;;;;;439.50;395.55;;;;;;;23.34;51.85;99676.56;341248;28;4888;-76
2022/07/05 00:31:17;;;;;;;440.57;396.50;;;;;;;23.37;51.93;99678.97;342060;28;2994;-76
2022/07/05 00:31:28;;;;;;;446.60;402.13;;;;;;;23.36;52.07;99682.63;342169;28;1911;-76
2022/07/05 00:31:38;;;;;;;451.87;407.37;;;;;;;23.37;52.15;99678.97;342240;28;4794;-76
2022/07/05 00:31:48;;;;;;;452.50;407.87;;;;;;;23.39;52.01;99678.81;343615;28;1301;-76
2022/07/05 00:31:59;;;;;;;452.27;407.90;;;;;;;23.42;52.00;99682.03;342534;28;847;-76
2022/07/05 00:32:09;;;;;;;455.33;410.63;;;;;;;23.43;51.71;99678.38;339945;28;1757;-76
2022/07/05 00:32:20;;;;;;;452.60;407.92;;;;;;;23.44;52.06;99676.53;341157;29;1334;-76
2022/07/05 00:32:30;;;;;;;444.40;400.00;;;;;;;23.46;51.72;99683.41;342592;28;849;-76
2022/07/05 00:32:40;;;;;;;440.85;396.60;;;;;;;23.47;51.95;99679.75;342516;28;833;-76
2022/07/05 00:32:51;;;;;;;440.33;395.90;;;;;;;23.50;51.86;99679.47;343373;28;1350;-76
2022/07/05 00:33:01;;;;;;;439.87;395.40;;;;;;;23.53;51.84;99679.22;343759;28;1175;-76
2022/07/05 00:33:12;;;;;;;436.55;392.27;;;;;;;23.55;51.70;99679.09;345145;28;1254;-76
2022/07/05 00:33:22;;;;;;;438.73;394.47;;;;;;;23.58;51.79;99680.63;343899;28;926;-76
2022/07/05 00:33:32;;;;;;;435.88;391.63;;;;;;;23.61;51.73;99683.00;341153;29;873;-76
2022/07/05 00:33:43;;;;;;;437.90;393.53;;;;;;;23.63;51.45;99681.03;341217;29;858;-76
2022/07/05 00:33:53;;;;;;;436.53;392.23;;;;;;;23.65;51.81;99671.03;341102;29;1173;-76
2022/07/05 00:34:04;;;;;;;437.13;393.10;;;;;;;23.65;51.35;99679.06;343805;28;1243;-76
2022/07/05 00:34:14;;;;;;;437.07;392.90;;;;;;;23.66;51.44;99670.91;345073;28;1378;-76
2022/07/05 00:34:24;;;;;;;434.08;390.05;;;;;;;23.67;51.33;99677.09;342489;28;949;-76
2022/07/05 00:34:35;;;;;;;435.27;391.13;;;;;;;23.67;51.26;99675.25;342492;28;1244;-76
2022/07/05 00:34:45;;;;;;;436.45;392.48;;;;;;;23.68;51.34;99678.78;342442;28;1287;-76
2022/07/05 00:34:56;;;;;;;441.83;397.73;;;;;;;23.68;51.28;99681.44;342460;28;1302;-76
2022/07/05 00:35:07;;;;;;;444.65;400.25;;;;;;;23.68;51.45;99676.09;341204;29;886;-76
2022/07/05 00:35:17;;;;;;;439.10;394.97;;;;;;;23.68;51.22;99681.44;341148;28;788;-76
2022/07/05 00:35:27;;;;;;;433.60;389.58;;;;;;;23.65;51.55;99673.72;341095;29;1224;-76
2022/07/05 00:35:38;;;;;;;427.43;383.77;;;;;;;23.62;51.29;99674.00;342487;28;893;-76
2022/07/05 00:35:48;;;;;;;428.10;384.17;;;;;;;23.54;51.85;99672.06;343750;28;1335;-76
2022/07/05 00:35:59;;;;;;;428.50;384.30;;;;;;;23.47;51.74;99669.06;342394;28;1191;-76
2022/07/05 00:36:09;;;;;;;432.40;387.90;;;;;;;23.44;52.02;99668.53;344456;28;2521;-76
2022/07/05 00:36:19;;;;;;;437.20;392.57;;;;;;;23.45;51.63;99676.38;343828;28;1708;-76
2022/07/05 00:36:30;;;;;;;439.77;395.30;;;;;;;23.44;51.83;99673.88;345072;28;1303;-76
2022/07/05 00:36:40;;;;;;;442.45;397.88;;;;;;;23.42;52.04;99670.50;343738;28;889;-76
2022/07/05 00:36:51;;;;;;;443.93;399.40;;;;;;;23.37;52.25;99673.63;342358;28;1374;-76
2022/07/05 00:37:01;;;;;;;440.58;396.13;;;;;;;23.37;52.05;99662.09;339792;29;874;-76
2022/07/05 00:37:12;;;;;;;437.50;393.17;;;;;;;23.33;52.06;99669.53;341072;29;1286;-76
2022/07/05 00:37:22;;;;;;;434.95;390.63;;;;;;;23.33;52.52;99671.38;343779;28;1398;-76
2022/07/05 00:37:33;;;;;;;438.97;394.60;;;;;;;23.32;52.34;99675.03;342456;28;1307;-76
2022/07/05 00:37:43;;;;;;;440.02;395.85;;;;;;;23.29;52.50;99668.13;343151;28;1590;-76
2022/07/05 00:37:53;;;;;;;440.27;396.07;;;;;;;23.30;52.29;99669.81;342414;28;995;-76
2022/07/05 00:38:04;;;;;;;440.13;395.67;;;;;;;23.29;52.31;99665.47;341087;28;1334;-76
2022/07/05 00:38:14;;;;;;;442.50;397.70;;;;;;;23.28;52.28;99666.47;342519;28;865;-76
2022/07/05 00:38:25;;;;;;;445.40;400.60;;;;;;;23.28;52.32;99663.78;343700;28;1284;-76
2022/07/05 00:38:35;;;;;;;447.60;402.93;;;;;;;23.29;52.49;99660.13;342365;28;1555;-75
2022/07/05 00:38:45;;;;;;;447.10;402.60;;;;;;;23.29;52.36;99660.13;342451;28;1965;-75
2022/07/05 00:38:56;;;;;;;446.30;401.80;;;;;;;23.25;52.63;99669.41;342474;28;1212;-75
2022/07/05 00:39:06;;;;;;;449.33;404.70;;;;;;;23.26;52.57;99662.25;343761;28;1197;-75
2022/07/05 00:39:17;;;;;;;450.80;405.95;;;;;;;23.25;52.80;99668.56;345045;28;1288;-75
2022/07/05 00:39:27;;;;;;;450.50;405.63;;;;;;;23.26;52.24;99664.91;342453;28;1370;-77
2022/07/05 00:39:38;;;;;;;449.83;405.00;;;;;;;23.25;52.89;99669.41;342364;28;1286;-76
2022/07/05 00:39:48;;;;;;;453.97;409.23;;;;;;;23.27;52.80;99661.25;341140;29;1367;-76
2022/07/05 00:39:59;;;;;;;453.48;408.67;;;;;;;23.27;52.39;99667.44;342407;28;1191;-76
2022/07/05 00:40:09;;;;;;;454.33;409.50;;;;;;;23.30;52.53;99660.97;342401;28;1093;-76
2022/07/05 00:40:20;;;;;;;454.85;410.08;;;;;;;23.30;52.32;99659.16;339550;28;4581;-76
2022/07/05 00:40:30;;;;;;;456.40;411.53;;;;;;;23.30;52.48;99667.16;340367;29;2927;-76
2022/07/05 00:40:42;;;;;;;457.95;412.83;;;;;;;23.31;52.58;99662.66;341622;28;1756;-76
2022/07/05 00:40:52;;;;;;;453.92;408.83;;;;;;;23.31;52.46;99663.50;343169;28;2046;-76
2022/07/05 00:41:03;;;;;;;455.87;410.80;;;;;;;23.34;52.80;99657.88;341018;28;1478;-76
2022/07/05 00:41:13;;;;;;;459.00;414.13;;;;;;;23.34;52.53;99657.88;343615;28;1188;-76
2022/07/05 00:41:24;;;;;;;457.20;412.35;;;;;;;23.36;52.49;99655.06;345209;28;957;-76
2022/07/05 00:41:34;;;;;;;451.92;407.27;;;;;;;23.36;52.23;99655.91;345180;28;865;-76
2022/07/05 00:41:45;;;;;;;447.87;403.37;;;;;;;23.36;52.34;99649.72;343816;28;1190;-76
2022/07/05 00:41:55;;;;;;;450.77;406.30;;;;;;;23.32;52.22;99657.19;342896;28;1406;-76
2022/07/05 00:42:06;;;;;;;457.07;412.20;;;;;;;23.30;52.58;99661.81;342311;28;1173;-76
2022/07/05 00:42:16;;;;;;;458.50;413.55;;;;;;;23.28;52.74;99658.44;341101;29;919;-77
2022/07/05 00:42:27;;;;;;;454.10;409.43;;;;;;;23.27;52.50;99656.75;340965;29;1562;-76
2022/07/05 00:42:37;;;;;;;451.33;406.90;;;;;;;23.25;52.50;99652.53;342454;28;1220;-75
2022/07/05 00:42:48;;;;;;;452.37;407.73;;;;;;;23.25;52.80;99658.72;342228;28;1355;-75
2022/07/05 00:42:58;;;;;;;451.52;406.77;;;;;;;23.25;52.72;99652.53;343744;28;1207;-75
2022/07/05 00:43:08;;;;;;;450.50;405.83;;;;;;;23.23;52.91;99655.34;342398;28;1299;-75
2022/07/05 00:43:19;;;;;;;450.07;405.50;;;;;;;23.25;52.59;99656.06;343772;28;1314;-76
2022/07/05 00:43:29;;;;;;;459.63;414.77;;;;;;;23.28;52.83;99663.78;342438;28;1229;-76
2022/07/05 00:43:53;;;;;;;460.37;415.43;;;;;;;23.33;52.68;99658.03;342437;28;1888;-75
2022/07/05 00:44:08;;;;;;;448.45;404.10;;;;;;;23.36;52.33;99657.72;343618;28;956;-75
2022/07/05 00:44:37;;;;;;;448.30;403.60;;;;;;;23.42;52.63;99659.81;342405;28;920;-75
2022/07/05 00:44:47;;;;;;;450.48;405.58;;;;;;;23.45;52.10;99652.34;343696;28;1604;-75
2022/07/05 00:44:59;;;;;;;453.25;408.52;;;;;;;23.47;52.23;99662.88;345141;28;1580;-75
2022/07/05 00:45:10;;;;;;;452.90;407.98;;;;;;;23.51;52.18;99661.63;345170;28;920;-75
2022/07/05 00:45:21;;;;;;;450.63;406.02;;;;;;;23.54;52.08;99654.19;343599;28;1179;-75
2022/07/05 00:45:31;;;;;;;444.77;400.40;;;;;;;23.56;52.38;99656.72;343905;28;845;-75
2022/07/05 00:45:41;;;;;;;438.73;394.53;;;;;;;23.57;52.22;99653.06;343808;28;853;-75
2022/07/05 00:45:52;;;;;;;438.40;393.90;;;;;;;23.60;52.38;99657.28;343716;28;1186;-75
2022/07/05 00:46:02;;;;;;;441.57;396.97;;;;;;;23.60;52.00;99657.28;342281;28;2005;-75
2022/07/05 00:46:13;;;;;;;443.25;398.73;;;;;;;23.61;51.90;99651.78;341096;29;949;-75
2022/07/05 00:46:23;;;;;;;441.43;397.23;;;;;;;23.60;51.57;99659.94;343825;28;852;-75
2022/07/05 00:46:34;;;;;;;431.92;388.08;;;;;;;23.59;51.75;99660.94;343780;28;1279;-75
2022/07/05 00:46:45;;;;;;;428.83;385.20;;;;;;;23.59;52.28;99660.94;345082;28;1234;-75
2022/07/05 00:46:55;;;;;;;426.67;382.83;;;;;;;23.60;52.11;99651.94;343501;28;948;-75
2022/07/05 00:47:06;;;;;;;432.77;388.70;;;;;;;23.62;52.23;99655.31;342436;28;1328;-76
2022/07/05 00:47:16;;;;;;;431.27;387.20;;;;;;;23.63;52.17;99657.00;342424;28;912;-76
2022/07/05 00:47:26;;;;;;;430.75;386.85;;;;;;;23.64;51.98;99656.00;342493;28;984;-76
2022/07/05 00:47:37;;;;;;;431.00;387.17;;;;;;;23.65;52.27;99657.69;343787;28;1301;-76
2022/07/05 00:47:47;;;;;;;430.75;386.77;;;;;;;23.65;51.87;99655.00;346395;28;1210;-76
2022/07/05 00:47:58;;;;;;;438.53;393.83;;;;;;;23.68;52.02;99660.91;343823;28;778;-76
2022/07/05 00:48:08;;;;;;;439.53;394.60;;;;;;;23.70;51.65;99660.78;342526;28;927;-76
2022/07/05 00:48:18;;;;;;;438.65;393.70;;;;;;;23.70;51.72;99661.63;341005;29;1223;-76
2022/07/05 00:48:29;;;;;;;434.60;390.23;;;;;;;23.71;51.92;99654.44;340363;29;1318;-76
2022/07/05 00:48:39;;;;;;;434.45;390.13;;;;;;;23.72;51.85;99656.13;342421;28;1506;-76
2022/07/05 00:48:50;;;;;;;432.13;387.93;;;;;;;23.73;52.01;99655.97;345089;28;1298;-76
2022/07/05 00:49:00;;;;;;;431.60;387.33;;;;;;;23.73;51.73;99660.47;343802;28;1332;-76
2022/07/05 00:49:11;;;;;;;426.93;382.80;;;;;;;23.73;51.53;99655.13;343221;28;1828;-76
2022/07/05 00:49:21;;;;;;;427.85;383.70;;;;;;;23.73;51.55;99653.31;344718;28;1953;-76
2022/07/05 00:49:32;;;;;;;422.27;378.37;;;;;;;23.73;51.48;99653.31;343562;28;2682;-76
2022/07/05 00:49:43;;;;;;;418.35;374.73;;;;;;;23.74;51.66;99655.00;340859;29;3185;-76